KPOF/POF METAR and TAF weather

Enter ICAO airport designator
Station Type Date Time Source
KPOF METAR 2021/09/28 15:53 UTC NOAA

KPOF 281553Z AUTO VRB03KT 9SM CLR 26/18 A2999 RMK AO2 SLP151 T02610178


Station Type Date Time Source
KPOF Decoded METAR 2021/09/28 15:53 UTC NOAA

POPLAR BLUFF MUN AIRPORT, MO, United States (KPOF) 36-46N 090-19W 100M
Sep 28, 2021 - 11:53 AM EDT / 2021.09.28 1553 UTC
Wind: Variable at 3 MPH (3 KT):0
Visibility: 9 mile(s):0
Sky conditions: clear
Temperature: 79.0 F (26.1 C)
Dew Point: 64.0 F (17.8 C)
Relative Humidity: 60%
Pressure (altimeter): 29.99 in. Hg (1015 hPa)
ob: KPOF 281553Z AUTO VRB03KT 9SM CLR 26/18 A2999 RMK AO2 SLP151 T02610178
cycle: 16

Station Type Date Time Source
KPOF TAF UTC NOAA

Error!

Example: see airport list